sensor_id;sensor_type;location;lat;lon;timestamp;P1;durP1;ratioP1;P2;durP2;ratioP2
10511;SDS011;5304;48.604;2.096;2023-11-21T04:49:20;4.07;;;2.57;;
10511;SDS011;5304;48.604;2.096;2023-11-21T04:52:05;6.00;;;2.50;;
10511;SDS011;5304;48.604;2.096;2023-11-21T04:54:50;4.07;;;2.30;;
10511;SDS011;5304;48.604;2.096;2023-11-21T04:57:35;3.17;;;1.73;;
10511;SDS011;5304;48.604;2.096;2023-11-21T05:00:20;4.03;;;1.87;;
10511;SDS011;5304;48.604;2.096;2023-11-21T05:03:06;3.23;;;1.70;;
10511;SDS011;5304;48.604;2.096;2023-11-21T05:05:50;4.43;;;1.60;;
10511;SDS011;5304;48.604;2.096;2023-11-21T05:08:35;1.47;;;1.37;;
10511;SDS011;5304;48.604;2.096;2023-11-21T05:11:25;2.63;;;1.70;;
10511;SDS011;5304;48.604;2.096;2023-11-21T05:14:11;1.90;;;1.40;;
10511;SDS011;5304;48.604;2.096;2023-11-21T05:16:57;5.27;;;1.70;;
10511;SDS011;5304;48.604;2.096;2023-11-21T05:19:43;2.67;;;1.70;;
10511;SDS011;5304;48.604;2.096;2023-11-21T05:22:29;1.93;;;1.80;;
10511;SDS011;5304;48.604;2.096;2023-11-21T05:25:14;2.77;;;1.97;;
10511;SDS011;5304;48.604;2.096;2023-11-21T05:27:58;2.47;;;1.87;;
10511;SDS011;5304;48.604;2.096;2023-11-21T05:30:44;2.37;;;1.67;;
10511;SDS011;5304;48.604;2.096;2023-11-21T05:33:28;2.50;;;1.73;;
10511;SDS011;5304;48.604;2.096;2023-11-21T05:36:13;2.57;;;1.97;;
10511;SDS011;5304;48.604;2.096;2023-11-21T05:38:57;3.80;;;1.70;;
10511;SDS011;5304;48.604;2.096;2023-11-21T05:41:41;3.37;;;1.70;;
10511;SDS011;5304;48.604;2.096;2023-11-21T05:44:26;4.07;;;1.70;;
10511;SDS011;5304;48.604;2.096;2023-11-21T05:47:10;4.00;;;1.30;;
10511;SDS011;5304;48.604;2.096;2023-11-21T05:49:54;2.20;;;1.27;;
10511;SDS011;5304;48.604;2.096;2023-11-21T05:52:38;2.00;;;1.13;;
10511;SDS011;5304;48.604;2.096;2023-11-21T05:55:23;2.30;;;1.20;;
10511;SDS011;5304;48.604;2.096;2023-11-21T05:58:09;5.57;;;1.37;;
10511;SDS011;5304;48.604;2.096;2023-11-21T06:00:53;3.77;;;1.37;;
10511;SDS011;5304;48.604;2.096;2023-11-21T06:03:37;2.97;;;1.77;;
10511;SDS011;5304;48.604;2.096;2023-11-21T06:06:21;8.53;;;1.40;;
10511;SDS011;5304;48.604;2.096;2023-11-21T06:09:05;4.10;;;1.27;;
10511;SDS011;5304;48.604;2.096;2023-11-21T06:11:52;2.97;;;1.03;;
10511;SDS011;5304;48.604;2.096;2023-11-21T06:14:36;4.53;;;1.43;;
10511;SDS011;5304;48.604;2.096;2023-11-21T06:17:20;1.77;;;1.20;;
10511;SDS011;5304;48.604;2.096;2023-11-21T06:20:05;3.43;;;1.83;;
10511;SDS011;5304;48.604;2.096;2023-11-21T06:22:57;2.90;;;1.57;;
10511;SDS011;5304;48.604;2.096;2023-11-21T06:25:41;3.13;;;1.13;;
10511;SDS011;5304;48.604;2.096;2023-11-21T06:28:26;2.47;;;1.47;;
10511;SDS011;5304;48.604;2.096;2023-11-21T06:31:10;4.50;;;1.60;;
10511;SDS011;5304;48.604;2.096;2023-11-21T06:33:54;6.60;;;1.70;;
10511;SDS011;5304;48.604;2.096;2023-11-21T06:36:39;4.70;;;1.70;;
10511;SDS011;5304;48.604;2.096;2023-11-21T06:39:23;1.83;;;1.43;;
10511;SDS011;5304;48.604;2.096;2023-11-21T06:42:07;1.67;;;1.27;;
10511;SDS011;5304;48.604;2.096;2023-11-21T06:44:51;2.83;;;1.33;;
10511;SDS011;5304;48.604;2.096;2023-11-21T06:47:37;1.50;;;1.40;;
10511;SDS011;5304;48.604;2.096;2023-11-21T06:50:22;2.73;;;1.63;;
10511;SDS011;5304;48.604;2.096;2023-11-21T06:53:06;2.03;;;1.60;;
10511;SDS011;5304;48.604;2.096;2023-11-21T06:55:52;1.67;;;1.30;;
10511;SDS011;5304;48.604;2.096;2023-11-21T06:58:36;5.43;;;1.70;;
10511;SDS011;5304;48.604;2.096;2023-11-21T07:01:20;1.97;;;1.57;;
10511;SDS011;5304;48.604;2.096;2023-11-21T07:04:04;3.40;;;1.90;;
10511;SDS011;5304;48.604;2.096;2023-11-21T07:06:50;3.10;;;1.80;;
10511;SDS011;5304;48.604;2.096;2023-11-21T07:09:35;2.60;;;1.60;;
10511;SDS011;5304;48.604;2.096;2023-11-21T07:12:19;3.13;;;2.10;;
10511;SDS011;5304;48.604;2.096;2023-11-21T07:15:03;3.33;;;2.10;;
10511;SDS011;5304;48.604;2.096;2023-11-21T07:17:50;4.43;;;2.57;;
10511;SDS011;5304;48.604;2.096;2023-11-21T07:20:37;4.10;;;2.00;;
10511;SDS011;5304;48.604;2.096;2023-11-21T07:23:21;4.67;;;2.37;;
10511;SDS011;5304;48.604;2.096;2023-11-21T07:26:06;2.50;;;2.30;;
10511;SDS011;5304;48.604;2.096;2023-11-21T07:28:53;3.63;;;2.20;;
10511;SDS011;5304;48.604;2.096;2023-11-21T07:31:37;3.23;;;2.50;;
10511;SDS011;5304;48.604;2.096;2023-11-21T07:34:22;3.77;;;2.60;;
10511;SDS011;5304;48.604;2.096;2023-11-21T07:37:06;4.00;;;3.03;;
10511;SDS011;5304;48.604;2.096;2023-11-21T07:39:50;5.80;;;3.23;;
10511;SDS011;5304;48.604;2.096;2023-11-21T07:42:39;3.83;;;3.00;;
10511;SDS011;5304;48.604;2.096;2023-11-21T07:45:23;4.03;;;3.23;;
10511;SDS011;5304;48.604;2.096;2023-11-21T07:48:07;6.17;;;3.67;;
10511;SDS011;5304;48.604;2.096;2023-11-21T07:50:52;6.83;;;3.90;;
10511;SDS011;5304;48.604;2.096;2023-11-21T07:53:36;6.33;;;4.30;;
10511;SDS011;5304;48.604;2.096;2023-11-21T07:56:20;6.37;;;5.00;;
10511;SDS011;5304;48.604;2.096;2023-11-21T07:59:05;9.37;;;6.00;;
10511;SDS011;5304;48.604;2.096;2023-11-21T08:01:49;9.63;;;5.83;;
10511;SDS011;5304;48.604;2.096;2023-11-21T08:04:33;9.40;;;6.50;;
10511;SDS011;5304;48.604;2.096;2023-11-21T08:07:19;10.33;;;6.53;;
10511;SDS011;5304;48.604;2.096;2023-11-21T08:10:03;11.67;;;7.47;;
10511;SDS011;5304;48.604;2.096;2023-11-21T08:12:48;11.10;;;8.33;;
10511;SDS011;5304;48.604;2.096;2023-11-21T08:15:34;11.57;;;8.47;;
10511;SDS011;5304;48.604;2.096;2023-11-21T08:18:19;12.90;;;8.67;;
10511;SDS011;5304;48.604;2.096;2023-11-21T08:21:03;12.70;;;9.00;;
10511;SDS011;5304;48.604;2.096;2023-11-21T08:23:49;13.27;;;8.67;;
10511;SDS011;5304;48.604;2.096;2023-11-21T08:26:37;14.30;;;8.73;;
10511;SDS011;5304;48.604;2.096;2023-11-21T08:29:21;11.93;;;8.23;;
10511;SDS011;5304;48.604;2.096;2023-11-21T08:32:06;12.67;;;8.20;;
10511;SDS011;5304;48.604;2.096;2023-11-21T08:34:51;13.13;;;8.43;;
10511;SDS011;5304;48.604;2.096;2023-11-21T08:37:35;14.33;;;8.07;;
10511;SDS011;5304;48.604;2.096;2023-11-21T08:40:22;11.83;;;8.50;;
10511;SDS011;5304;48.604;2.096;2023-11-21T08:43:07;11.80;;;7.77;;
10511;SDS011;5304;48.604;2.096;2023-11-21T08:45:51;14.43;;;8.23;;
10511;SDS011;5304;48.604;2.096;2023-11-21T08:48:36;9.77;;;7.43;;
10511;SDS011;5304;48.604;2.096;2023-11-21T08:51:20;12.10;;;7.63;;
10511;SDS011;5304;48.604;2.096;2023-11-21T08:54:05;13.23;;;7.70;;
10511;SDS011;5304;48.604;2.096;2023-11-21T08:56:52;10.73;;;7.97;;
10511;SDS011;5304;48.604;2.096;2023-11-21T08:59:38;12.03;;;8.27;;
10511;SDS011;5304;48.604;2.096;2023-11-21T09:02:22;11.60;;;7.37;;
10511;SDS011;5304;48.604;2.096;2023-11-21T09:05:07;9.97;;;7.03;;
10511;SDS011;5304;48.604;2.096;2023-11-21T09:07:55;17.57;;;11.17;;
10511;SDS011;5304;48.604;2.096;2023-11-21T09:10:39;20.37;;;14.60;;
10511;SDS011;5304;48.604;2.096;2023-11-21T09:13:26;21.00;;;13.93;;
10511;SDS011;5304;48.604;2.096;2023-11-21T09:16:10;10.40;;;8.73;;
10511;SDS011;5304;48.604;2.096;2023-11-21T09:18:54;12.00;;;7.67;;
10511;SDS011;5304;48.604;2.096;2023-11-21T09:21:39;9.90;;;6.43;;
10511;SDS011;5304;48.604;2.096;2023-11-21T09:24:23;7.90;;;6.13;;
10511;SDS011;5304;48.604;2.096;2023-11-21T09:27:07;10.37;;;7.87;;
10511;SDS011;5304;48.604;2.096;2023-11-21T09:29:53;7.83;;;6.40;;
10511;SDS011;5304;48.604;2.096;2023-11-21T09:32:37;14.03;;;9.07;;
10511;SDS011;5304;48.604;2.096;2023-11-21T09:35:22;10.63;;;7.63;;
10511;SDS011;5304;48.604;2.096;2023-11-21T09:38:06;9.13;;;6.80;;
10511;SDS011;5304;48.604;2.096;2023-11-21T09:40:54;7.30;;;5.10;;
10511;SDS011;5304;48.604;2.096;2023-11-21T09:43:38;8.90;;;5.10;;
10511;SDS011;5304;48.604;2.096;2023-11-21T09:46:23;6.37;;;5.17;;
10511;SDS011;5304;48.604;2.096;2023-11-21T09:49:11;14.27;;;10.90;;
10511;SDS011;5304;48.604;2.096;2023-11-21T09:51:57;11.07;;;8.93;;
10511;SDS011;5304;48.604;2.096;2023-11-21T09:54:46;11.33;;;7.83;;
10511;SDS011;5304;48.604;2.096;2023-11-21T09:57:31;9.50;;;6.67;;
10511;SDS011;5304;48.604;2.096;2023-11-21T10:00:17;11.10;;;7.30;;
10511;SDS011;5304;48.604;2.096;2023-11-21T10:03:04;8.10;;;5.23;;
10511;SDS011;5304;48.604;2.096;2023-11-21T10:05:50;9.73;;;6.57;;
10511;SDS011;5304;48.604;2.096;2023-11-21T10:08:36;7.67;;;5.57;;
10511;SDS011;5304;48.604;2.096;2023-11-21T10:11:20;8.07;;;6.27;;
10511;SDS011;5304;48.604;2.096;2023-11-21T10:14:12;6.57;;;4.17;;
10511;SDS011;5304;48.604;2.096;2023-11-21T10:16:57;5.00;;;4.00;;
10511;SDS011;5304;48.604;2.096;2023-11-21T10:19:42;5.53;;;3.77;;
10511;SDS011;5304;48.604;2.096;2023-11-21T10:22:26;9.30;;;5.80;;
10511;SDS011;5304;48.604;2.096;2023-11-21T10:25:11;5.13;;;3.90;;
10511;SDS011;5304;48.604;2.096;2023-11-21T10:28:01;4.40;;;3.00;;
10511;SDS011;5304;48.604;2.096;2023-11-21T10:30:48;8.07;;;5.00;;
10511;SDS011;5304;48.604;2.096;2023-11-21T10:33:32;4.00;;;2.47;;
10511;SDS011;5304;48.604;2.096;2023-11-21T10:36:26;12.70;;;6.63;;
10511;SDS011;5304;48.604;2.096;2023-11-21T10:39:16;10.07;;;4.57;;
10511;SDS011;5304;48.604;2.096;2023-11-21T10:42:01;4.20;;;2.90;;
10511;SDS011;5304;48.604;2.096;2023-11-21T10:44:46;6.53;;;3.17;;
10511;SDS011;5304;48.604;2.096;2023-11-21T10:47:30;5.60;;;3.23;;
10511;SDS011;5304;48.604;2.096;2023-11-21T10:50:15;9.13;;;5.17;;
10511;SDS011;5304;48.604;2.096;2023-11-21T10:53:03;9.97;;;4.87;;
10511;SDS011;5304;48.604;2.096;2023-11-21T10:55:48;9.60;;;5.10;;
10511;SDS011;5304;48.604;2.096;2023-11-21T10:58:32;4.23;;;2.90;;
10511;SDS011;5304;48.604;2.096;2023-11-21T11:01:18;3.63;;;2.80;;
10511;SDS011;5304;48.604;2.096;2023-11-21T11:04:05;2.63;;;2.37;;
10511;SDS011;5304;48.604;2.096;2023-11-21T11:07:00;3.93;;;2.20;;
10511;SDS011;5304;48.604;2.096;2023-11-21T11:09:47;3.67;;;2.70;;
10511;SDS011;5304;48.604;2.096;2023-11-21T11:12:31;9.33;;;5.00;;
10511;SDS011;5304;48.604;2.096;2023-11-21T11:15:16;5.50;;;3.90;;
10511;SDS011;5304;48.604;2.096;2023-11-21T11:18:01;7.07;;;4.03;;
10511;SDS011;5304;48.604;2.096;2023-11-21T11:20:48;6.50;;;2.93;;
10511;SDS011;5304;48.604;2.096;2023-11-21T11:26:56;3.63;;;2.60;;
10511;SDS011;5304;48.604;2.096;2023-11-21T11:42:21;2.67;;;1.70;;
10511;SDS011;5304;48.604;2.096;2023-11-21T11:45:17;3.30;;;1.60;;
10511;SDS011;5304;48.604;2.096;2023-11-21T11:48:03;4.00;;;1.40;;
10511;SDS011;5304;48.604;2.096;2023-11-21T11:51:10;2.53;;;1.00;;
10511;SDS011;5304;48.604;2.096;2023-11-21T11:53:54;1.30;;;1.20;;
10511;SDS011;5304;48.604;2.096;2023-11-21T11:56:39;2.13;;;1.00;;
10511;SDS011;5304;48.604;2.096;2023-11-21T11:59:23;1.70;;;1.20;;
10511;SDS011;5304;48.604;2.096;2023-11-21T12:02:09;1.50;;;1.40;;
10511;SDS011;5304;48.604;2.096;2023-11-21T12:04:55;1.17;;;1.17;;
10511;SDS011;5304;48.604;2.096;2023-11-21T12:08:23;2.80;;;1.50;;
10511;SDS011;5304;48.604;2.096;2023-11-21T12:10:48;1.20;;;1.10;;
10511;SDS011;5304;48.604;2.096;2023-11-21T12:13:36;2.33;;;1.30;;
10511;SDS011;5304;48.604;2.096;2023-11-21T12:16:21;2.73;;;1.67;;
10511;SDS011;5304;48.604;2.096;2023-11-21T12:19:06;9.30;;;5.30;;
10511;SDS011;5304;48.604;2.096;2023-11-21T12:21:51;1.30;;;1.20;;
10511;SDS011;5304;48.604;2.096;2023-11-21T12:24:36;1.90;;;1.80;;
10511;SDS011;5304;48.604;2.096;2023-11-21T12:27:20;2.00;;;1.17;;
10511;SDS011;5304;48.604;2.096;2023-11-21T12:30:05;1.70;;;1.60;;
10511;SDS011;5304;48.604;2.096;2023-11-21T12:32:52;2.57;;;1.43;;
10511;SDS011;5304;48.604;2.096;2023-11-21T12:35:39;2.17;;;1.47;;
10511;SDS011;5304;48.604;2.096;2023-11-21T12:38:23;2.60;;;1.40;;
10511;SDS011;5304;48.604;2.096;2023-11-21T12:41:11;1.73;;;1.17;;
10511;SDS011;5304;48.604;2.096;2023-11-21T12:43:55;1.27;;;1.17;;
10511;SDS011;5304;48.604;2.096;2023-11-21T12:46:42;1.17;;;1.13;;
10511;SDS011;5304;48.604;2.096;2023-11-21T12:49:29;1.50;;;1.17;;
10511;SDS011;5304;48.604;2.096;2023-11-21T12:52:13;1.60;;;1.07;;
10511;SDS011;5304;48.604;2.096;2023-11-21T12:54:57;1.40;;;1.30;;
10511;SDS011;5304;48.604;2.096;2023-11-21T12:57:42;1.73;;;1.17;;
10511;SDS011;5304;48.604;2.096;2023-11-21T13:00:32;2.07;;;1.50;;
10511;SDS011;5304;48.604;2.096;2023-11-21T13:03:20;3.37;;;1.37;;
10511;SDS011;5304;48.604;2.096;2023-11-21T13:06:09;1.77;;;1.40;;
10511;SDS011;5304;48.604;2.096;2023-11-21T13:08:54;2.90;;;1.20;;
10511;SDS011;5304;48.604;2.096;2023-11-21T13:11:41;2.23;;;1.40;;
10511;SDS011;5304;48.604;2.096;2023-11-21T13:14:29;2.57;;;1.50;;
10511;SDS011;5304;48.604;2.096;2023-11-21T13:17:15;1.27;;;1.17;;
10511;SDS011;5304;48.604;2.096;2023-11-21T13:19:59;1.53;;;1.40;;
10511;SDS011;5304;48.604;2.096;2023-11-21T13:22:50;1.40;;;1.30;;
10511;SDS011;5304;48.604;2.096;2023-11-21T13:25:41;2.00;;;1.30;;
10511;SDS011;5304;48.604;2.096;2023-11-21T13:28:26;2.53;;;1.53;;
10511;SDS011;5304;48.604;2.096;2023-11-21T13:31:15;1.33;;;1.23;;
10511;SDS011;5304;48.604;2.096;2023-11-21T13:34:10;1.70;;;1.53;;
10511;SDS011;5304;48.604;2.096;2023-11-21T13:36:57;1.27;;;1.17;;
10511;SDS011;5304;48.604;2.096;2023-11-21T13:39:44;1.30;;;1.20;;
10511;SDS011;5304;48.604;2.096;2023-11-21T13:42:33;3.03;;;1.80;;
10511;SDS011;5304;48.604;2.096;2023-11-21T13:45:17;5.00;;;2.30;;
10511;SDS011;5304;48.604;2.096;2023-11-21T13:48:04;2.33;;;1.70;;
10511;SDS011;5304;48.604;2.096;2023-11-21T13:50:53;2.07;;;1.40;;
10511;SDS011;5304;48.604;2.096;2023-11-21T13:53:44;1.50;;;1.40;;
10511;SDS011;5304;48.604;2.096;2023-11-21T13:56:31;1.80;;;1.60;;
10511;SDS011;5304;48.604;2.096;2023-11-21T13:59:16;3.27;;;1.80;;
10511;SDS011;5304;48.604;2.096;2023-11-21T14:02:11;2.07;;;1.90;;
10511;SDS011;5304;48.604;2.096;2023-11-21T14:05:12;1.73;;;1.13;;
10511;SDS011;5304;48.604;2.096;2023-11-21T14:07:57;1.57;;;1.47;;
10511;SDS011;5304;48.604;2.096;2023-11-21T14:10:49;2.10;;;1.90;;
10511;SDS011;5304;48.604;2.096;2023-11-21T14:13:40;2.60;;;2.40;;
10511;SDS011;5304;48.604;2.096;2023-11-21T14:16:30;3.03;;;2.40;;
10511;SDS011;5304;48.604;2.096;2023-11-21T14:19:14;1.70;;;1.60;;
10511;SDS011;5304;48.604;2.096;2023-11-21T14:22:01;1.70;;;1.60;;
10511;SDS011;5304;48.604;2.096;2023-11-21T14:24:46;1.43;;;1.33;;
10511;SDS011;5304;48.604;2.096;2023-11-21T14:27:30;1.60;;;1.50;;
10511;SDS011;5304;48.604;2.096;2023-11-21T14:30:16;3.33;;;3.00;;
10511;SDS011;5304;48.604;2.096;2023-11-21T14:33:03;3.37;;;3.00;;
10511;SDS011;5304;48.604;2.096;2023-11-21T14:35:47;2.77;;;1.83;;
10511;SDS011;5304;48.604;2.096;2023-11-21T14:38:31;3.57;;;2.83;;
10511;SDS011;5304;48.604;2.096;2023-11-21T14:41:16;1.90;;;1.43;;
10511;SDS011;5304;48.604;2.096;2023-11-21T14:44:00;3.10;;;1.90;;
10511;SDS011;5304;48.604;2.096;2023-11-21T14:46:47;2.57;;;2.03;;
10511;SDS011;5304;48.604;2.096;2023-11-21T14:49:33;5.50;;;2.63;;
10511;SDS011;5304;48.604;2.096;2023-11-21T14:52:34;1.90;;;1.80;;
10511;SDS011;5304;48.604;2.096;2023-11-21T14:55:18;2.73;;;1.90;;
10511;SDS011;5304;48.604;2.096;2023-11-21T14:58:03;5.93;;;5.00;;
10511;SDS011;5304;48.604;2.096;2023-11-21T15:00:47;3.67;;;3.33;;
10511;SDS011;5304;48.604;2.096;2023-11-21T15:03:35;5.03;;;4.27;;
10511;SDS011;5304;48.604;2.096;2023-11-21T15:06:27;3.27;;;2.97;;
10511;SDS011;5304;48.604;2.096;2023-11-21T15:09:13;3.97;;;3.30;;
10511;SDS011;5304;48.604;2.096;2023-11-21T15:11:58;4.37;;;3.67;;
10511;SDS011;5304;48.604;2.096;2023-11-21T15:14:57;5.80;;;3.93;;
10511;SDS011;5304;48.604;2.096;2023-11-21T15:17:41;4.00;;;3.30;;
10511;SDS011;5304;48.604;2.096;2023-11-21T15:20:27;6.87;;;1.70;;
10511;SDS011;5304;48.604;2.096;2023-11-21T15:23:12;4.17;;;2.53;;
10511;SDS011;5304;48.604;2.096;2023-11-21T15:26:01;4.00;;;3.50;;
10511;SDS011;5304;48.604;2.096;2023-11-21T15:28:47;3.47;;;1.87;;
10511;SDS011;5304;48.604;2.096;2023-11-21T15:31:31;1.60;;;1.50;;
10511;SDS011;5304;48.604;2.096;2023-11-21T15:34:16;1.43;;;1.33;;
10511;SDS011;5304;48.604;2.096;2023-11-21T15:37:01;1.80;;;1.70;;
10511;SDS011;5304;48.604;2.096;2023-11-21T15:39:46;1.90;;;1.80;;
10511;SDS011;5304;48.604;2.096;2023-11-21T15:42:30;3.57;;;1.90;;
10511;SDS011;5304;48.604;2.096;2023-11-21T15:45:14;3.30;;;2.17;;
10511;SDS011;5304;48.604;2.096;2023-11-21T15:48:02;2.00;;;1.80;;
10511;SDS011;5304;48.604;2.096;2023-11-21T15:50:47;2.23;;;1.90;;
10511;SDS011;5304;48.604;2.096;2023-11-21T15:53:31;2.40;;;1.63;;
10511;SDS011;5304;48.604;2.096;2023-11-21T15:56:17;2.67;;;1.80;;
10511;SDS011;5304;48.604;2.096;2023-11-21T15:59:01;4.40;;;1.80;;
10511;SDS011;5304;48.604;2.096;2023-11-21T16:01:47;5.13;;;2.40;;
10511;SDS011;5304;48.604;2.096;2023-11-21T16:04:32;6.23;;;2.13;;
10511;SDS011;5304;48.604;2.096;2023-11-21T16:07:16;2.10;;;1.90;;
10511;SDS011;5304;48.604;2.096;2023-11-21T16:10:02;2.03;;;1.70;;
10511;SDS011;5304;48.604;2.096;2023-11-21T16:12:47;2.97;;;1.80;;
10511;SDS011;5304;48.604;2.096;2023-11-21T16:15:32;2.80;;;1.70;;
10511;SDS011;5304;48.604;2.096;2023-11-21T16:18:17;2.20;;;1.67;;
10511;SDS011;5304;48.604;2.096;2023-11-21T16:21:02;5.33;;;1.87;;
10511;SDS011;5304;48.604;2.096;2023-11-21T16:23:47;5.00;;;1.90;;
10511;SDS011;5304;48.604;2.096;2023-11-21T16:26:31;5.00;;;2.10;;
10511;SDS011;5304;48.604;2.096;2023-11-21T16:29:15;6.50;;;2.10;;
10511;SDS011;5304;48.604;2.096;2023-11-21T16:32:00;5.03;;;2.07;;
10511;SDS011;5304;48.604;2.096;2023-11-21T16:34:45;3.60;;;2.10;;
10511;SDS011;5304;48.604;2.096;2023-11-21T16:37:29;4.57;;;2.10;;
10511;SDS011;5304;48.604;2.096;2023-11-21T16:40:14;6.10;;;1.73;;
10511;SDS011;5304;48.604;2.096;2023-11-21T16:42:59;3.33;;;2.27;;
10511;SDS011;5304;48.604;2.096;2023-11-21T16:45:43;4.90;;;2.17;;
10511;SDS011;5304;48.604;2.096;2023-11-21T16:48:35;5.03;;;2.37;;
10511;SDS011;5304;48.604;2.096;2023-11-21T16:51:20;9.27;;;5.57;;
10511;SDS011;5304;48.604;2.096;2023-11-21T16:54:04;9.43;;;4.63;;
10511;SDS011;5304;48.604;2.096;2023-11-21T16:56:49;2.90;;;2.60;;
10511;SDS011;5304;48.604;2.096;2023-11-21T16:59:33;3.00;;;2.10;;
10511;SDS011;5304;48.604;2.096;2023-11-21T17:02:18;4.53;;;2.00;;
10511;SDS011;5304;48.604;2.096;2023-11-21T17:05:03;4.50;;;2.40;;
10511;SDS011;5304;48.604;2.096;2023-11-21T17:07:49;4.73;;;2.10;;
10511;SDS011;5304;48.604;2.096;2023-11-21T17:10:34;3.20;;;1.77;;
10511;SDS011;5304;48.604;2.096;2023-11-21T17:13:18;3.30;;;1.90;;
10511;SDS011;5304;48.604;2.096;2023-11-21T17:16:02;2.50;;;1.70;;
10511;SDS011;5304;48.604;2.096;2023-11-21T17:18:47;1.90;;;1.80;;
10511;SDS011;5304;48.604;2.096;2023-11-21T17:21:31;2.70;;;1.87;;
10511;SDS011;5304;48.604;2.096;2023-11-21T17:24:16;1.63;;;1.50;;
10511;SDS011;5304;48.604;2.096;2023-11-21T17:27:00;3.63;;;1.70;;
10511;SDS011;5304;48.604;2.096;2023-11-21T17:29:44;3.37;;;2.20;;
10511;SDS011;5304;48.604;2.096;2023-11-21T17:32:28;2.40;;;2.20;;
10511;SDS011;5304;48.604;2.096;2023-11-21T17:35:13;2.90;;;2.10;;
10511;SDS011;5304;48.604;2.096;2023-11-21T17:37:57;4.57;;;2.10;;
10511;SDS011;5304;48.604;2.096;2023-11-21T17:40:41;3.50;;;2.10;;
10511;SDS011;5304;48.604;2.096;2023-11-21T17:43:26;3.50;;;2.70;;
10511;SDS011;5304;48.604;2.096;2023-11-21T17:46:10;2.47;;;2.20;;
10511;SDS011;5304;48.604;2.096;2023-11-21T17:48:57;3.33;;;2.37;;
10511;SDS011;5304;48.604;2.096;2023-11-21T17:51:42;4.77;;;2.63;;
10511;SDS011;5304;48.604;2.096;2023-11-21T17:54:26;3.57;;;2.93;;
10511;SDS011;5304;48.604;2.096;2023-11-21T17:57:10;4.40;;;2.87;;
10511;SDS011;5304;48.604;2.096;2023-11-21T17:59:55;4.13;;;2.83;;
10511;SDS011;5304;48.604;2.096;2023-11-21T18:02:39;3.83;;;2.70;;
10511;SDS011;5304;48.604;2.096;2023-11-21T18:05:24;4.33;;;3.17;;
10511;SDS011;5304;48.604;2.096;2023-11-21T18:08:09;3.80;;;3.33;;
10511;SDS011;5304;48.604;2.096;2023-11-21T18:10:54;4.27;;;3.10;;
10511;SDS011;5304;48.604;2.096;2023-11-21T18:13:38;3.73;;;3.00;;
10511;SDS011;5304;48.604;2.096;2023-11-21T18:16:22;4.50;;;3.10;;
10511;SDS011;5304;48.604;2.096;2023-11-21T18:19:07;3.93;;;2.80;;
10511;SDS011;5304;48.604;2.096;2023-11-21T18:21:52;5.33;;;3.33;;
10511;SDS011;5304;48.604;2.096;2023-11-21T18:24:36;3.57;;;2.90;;
10511;SDS011;5304;48.604;2.096;2023-11-21T18:27:20;8.83;;;3.10;;
10511;SDS011;5304;48.604;2.096;2023-11-21T18:30:11;4.37;;;2.93;;
10511;SDS011;5304;48.604;2.096;2023-11-21T18:32:57;4.70;;;3.40;;
10511;SDS011;5304;48.604;2.096;2023-11-21T18:35:42;6.87;;;4.37;;
10511;SDS011;5304;48.604;2.096;2023-11-21T18:38:26;11.03;;;4.67;;
10511;SDS011;5304;48.604;2.096;2023-11-21T18:41:11;6.27;;;3.93;;
10511;SDS011;5304;48.604;2.096;2023-11-21T18:44:03;8.47;;;4.80;;
10511;SDS011;5304;48.604;2.096;2023-11-21T18:46:47;12.37;;;6.50;;
10511;SDS011;5304;48.604;2.096;2023-11-21T18:49:31;15.97;;;10.20;;
10511;SDS011;5304;48.604;2.096;2023-11-21T18:52:19;23.77;;;11.50;;
10511;SDS011;5304;48.604;2.096;2023-11-21T18:55:03;14.17;;;7.03;;
10511;SDS011;5304;48.604;2.096;2023-11-21T18:57:48;6.13;;;4.70;;
10511;SDS011;5304;48.604;2.096;2023-11-21T19:00:32;8.40;;;4.80;;
10511;SDS011;5304;48.604;2.096;2023-11-21T19:03:16;9.93;;;5.13;;
10511;SDS011;5304;48.604;2.096;2023-11-21T19:06:01;11.07;;;5.50;;
10511;SDS011;5304;48.604;2.096;2023-11-21T19:08:45;14.80;;;6.97;;
10511;SDS011;5304;48.604;2.096;2023-11-21T19:11:29;10.43;;;6.53;;
10511;SDS011;5304;48.604;2.096;2023-11-21T19:14:14;8.47;;;5.20;;
10511;SDS011;5304;48.604;2.096;2023-11-21T19:16:59;8.80;;;5.93;;
10511;SDS011;5304;48.604;2.096;2023-11-21T19:19:43;8.70;;;4.40;;
10511;SDS011;5304;48.604;2.096;2023-11-21T19:22:28;6.67;;;4.23;;
10511;SDS011;5304;48.604;2.096;2023-11-21T19:25:12;9.37;;;4.60;;
10511;SDS011;5304;48.604;2.096;2023-11-21T19:27:58;7.40;;;4.27;;
10511;SDS011;5304;48.604;2.096;2023-11-21T19:30:43;6.97;;;3.93;;
10511;SDS011;5304;48.604;2.096;2023-11-21T19:33:27;8.00;;;3.60;;
10511;SDS011;5304;48.604;2.096;2023-11-21T19:36:17;5.97;;;4.07;;
10511;SDS011;5304;48.604;2.096;2023-11-21T19:39:01;10.27;;;3.73;;
10511;SDS011;5304;48.604;2.096;2023-11-21T19:41:46;9.90;;;4.90;;
10511;SDS011;5304;48.604;2.096;2023-11-21T19:44:32;6.97;;;3.97;;
10511;SDS011;5304;48.604;2.096;2023-11-21T19:47:19;6.87;;;3.33;;
10511;SDS011;5304;48.604;2.096;2023-11-21T19:50:04;5.90;;;3.50;;
10511;SDS011;5304;48.604;2.096;2023-11-21T19:52:51;9.20;;;4.07;;
10511;SDS011;5304;48.604;2.096;2023-11-21T19:55:35;4.93;;;3.37;;
10511;SDS011;5304;48.604;2.096;2023-11-21T19:58:19;8.17;;;3.67;;
10511;SDS011;5304;48.604;2.096;2023-11-21T20:01:04;6.47;;;3.53;;
10511;SDS011;5304;48.604;2.096;2023-11-21T20:03:49;7.10;;;4.70;;
10511;SDS011;5304;48.604;2.096;2023-11-21T20:06:37;7.27;;;4.43;;
10511;SDS011;5304;48.604;2.096;2023-11-21T20:09:23;7.17;;;4.53;;
10511;SDS011;5304;48.604;2.096;2023-11-21T20:12:09;6.53;;;3.73;;
10511;SDS011;5304;48.604;2.096;2023-11-21T20:14:53;6.50;;;4.70;;
10511;SDS011;5304;48.604;2.096;2023-11-21T20:17:37;5.53;;;4.70;;
10511;SDS011;5304;48.604;2.096;2023-11-21T20:20:23;6.90;;;3.50;;
10511;SDS011;5304;48.604;2.096;2023-11-21T20:23:07;4.57;;;3.83;;
10511;SDS011;5304;48.604;2.096;2023-11-21T20:25:51;5.87;;;4.33;;
10511;SDS011;5304;48.604;2.096;2023-11-21T20:28:41;8.57;;;4.90;;
10511;SDS011;5304;48.604;2.096;2023-11-21T20:31:26;5.63;;;4.17;;
10511;SDS011;5304;48.604;2.096;2023-11-21T20:34:12;5.83;;;4.00;;
10511;SDS011;5304;48.604;2.096;2023-11-21T20:36:56;6.30;;;4.97;;
10511;SDS011;5304;48.604;2.096;2023-11-21T20:39:41;8.43;;;5.03;;
10511;SDS011;5304;48.604;2.096;2023-11-21T20:42:29;5.60;;;4.03;;
10511;SDS011;5304;48.604;2.096;2023-11-21T20:45:15;4.77;;;3.80;;
10511;SDS011;5304;48.604;2.096;2023-11-21T20:47:59;5.90;;;3.87;;
10511;SDS011;5304;48.604;2.096;2023-11-21T20:50:43;6.53;;;4.23;;
10511;SDS011;5304;48.604;2.096;2023-11-21T20:53:27;9.27;;;4.23;;
10511;SDS011;5304;48.604;2.096;2023-11-21T20:56:12;8.50;;;3.93;;
10511;SDS011;5304;48.604;2.096;2023-11-21T20:58:57;7.73;;;3.83;;
10511;SDS011;5304;48.604;2.096;2023-11-21T21:01:44;9.97;;;4.20;;
10511;SDS011;5304;48.604;2.096;2023-11-21T21:04:28;7.67;;;4.70;;
10511;SDS011;5304;48.604;2.096;2023-11-21T21:07:12;6.53;;;3.93;;
10511;SDS011;5304;48.604;2.096;2023-11-21T21:09:57;7.83;;;3.67;;
10511;SDS011;5304;48.604;2.096;2023-11-21T21:12:42;7.80;;;3.80;;
10511;SDS011;5304;48.604;2.096;2023-11-21T21:15:27;7.57;;;3.77;;
10511;SDS011;5304;48.604;2.096;2023-11-21T21:18:13;8.47;;;3.83;;
10511;SDS011;5304;48.604;2.096;2023-11-21T21:20:58;5.63;;;3.63;;
10511;SDS011;5304;48.604;2.096;2023-11-21T21:23:43;6.43;;;3.50;;
10511;SDS011;5304;48.604;2.096;2023-11-21T21:26:27;5.30;;;3.67;;
10511;SDS011;5304;48.604;2.096;2023-11-21T21:29:12;8.23;;;3.60;;
10511;SDS011;5304;48.604;2.096;2023-11-21T21:31:56;3.93;;;3.03;;
10511;SDS011;5304;48.604;2.096;2023-11-21T21:34:41;4.00;;;3.03;;
10511;SDS011;5304;48.604;2.096;2023-11-21T21:37:25;3.90;;;2.97;;
10511;SDS011;5304;48.604;2.096;2023-11-21T21:40:10;5.57;;;3.33;;
